CDT,Max TemperatureF,Mean TemperatureF,Min TemperatureF,Max Dew PointF,MeanDew PointF,Min DewpointF,Max Humidity, Mean Humidity, Min Humidity, Max Sea Level PressureIn, Mean Sea Level PressureIn, Min Sea Level PressureIn, Max VisibilityMiles, Mean VisibilityMiles, Min VisibilityMiles, Max Wind SpeedMPH, Mean Wind SpeedMPH, Max Gust SpeedMPH,PrecipitationIn, CloudCover, Events, WindDirDegrees
2012-10-1,81,66,50,48,45,37,89,58,26,29.91,29.86,29.81,10,10,2,23,8,74,0.00,0,,359
2012-10-2,78,60,41,44,39,35,83,55,26,29.96,29.91,29.85,10,10,9,25,4,59,0.00,0,,350
2012-10-3,81,59,36,46,39,34,96,57,18,29.97,29.93,29.86,10,8,0,18,6,25,0.00,0,Fog,180
2012-10-4,65,56,47,49,41,36,71,58,44,30.28,30.18,29.95,10,10,10,23,8,29,0.01,5,Thunderstorm,332
2012-10-5,51,40,28,36,31,27,89,66,42,30.34,30.30,30.26,10,10,10,20,8,24,T,5,,3
2012-10-6,49,38,27,31,26,23,92,65,38,30.40,30.34,30.30,10,10,3,15,5,20,0.00,1,,337
2012-10-7,59,41,22,29,24,20,96,60,24,30.35,30.25,30.14,10,10,10,15,4,20,0.00,0,,240
2012-10-8,68,50,31,35,31,27,82,54,26,30.14,30.02,29.91,10,10,10,24,12,35,0.00,0,,188
2012-10-9,67,49,30,41,34,22,70,52,34,30.16,29.97,29.89,10,10,10,20,8,24,0.00,2,,256
2012-10-10,65,44,23,31,26,20,92,57,22,30.30,30.21,30.14,10,10,10,14,4,18,0.00,0,,223
2012-10-11,72,54,35,50,38,30,76,56,36,30.26,30.12,30.03,10,10,10,22,7,28,0.00,3,,122
2012-10-12,58,54,49,49,33,25,72,55,38,30.34,30.24,30.07,10,10,10,20,10,28,T,8,Rain,102
2012-10-13,72,65,57,65,62,50,93,86,79,30.05,29.82,29.62,10,7,2,24,12,31,0.66,8,Rain-Thunderstorm,172
2012-10-14,67,55,43,61,52,40,90,64,37,30.00,29.73,29.55,10,8,2,40,14,51,0.85,5,Rain-Thunderstorm,300
2012-10-15,76,58,39,48,43,36,93,63,33,30.02,29.93,29.81,10,10,8,13,3,20,0.00,0,,138
2012-10-16,82,68,53,52,49,48,83,58,33,29.78,29.58,29.47,10,10,10,23,10,28,0.00,0,,201
2012-10-17,67,59,50,54,44,24,80,57,34,29.63,29.51,29.41,10,10,10,32,12,38,T,4,,268
2012-10-18,55,51,46,41,31,24,82,56,30,29.66,29.62,29.59,10,10,10,35,20,46,0.05,5,Rain,280
2012-10-19,52,46,39,41,40,39,89,76,63,29.85,29.73,29.63,10,10,10,30,13,39,0.03,8,Rain,309
2012-10-20,70,52,33,42,37,33,100,66,31,29.88,29.82,29.73,10,6,0,15,5,21,0.00,1,Fog,136
2012-10-21,81,66,50,65,55,42,80,66,51,29.80,29.76,29.72,10,10,9,24,8,29,0.00,3,,138
2012-10-22,86,73,60,66,63,57,84,64,44,29.82,29.76,29.71,10,10,8,23,9,49,0.00,5,Thunderstorm,174
2012-10-23,84,70,56,65,62,54,93,72,51,29.79,29.74,29.66,10,10,8,24,12,32,0.00,5,,182
2012-10-24,84,76,67,65,64,60,93,72,51,29.78,29.72,29.65,10,10,10,25,16,37,0.00,3,,187
2012-10-25,74,56,38,61,43,27,89,74,59,30.33,29.91,29.60,10,8,3,31,19,40,0.05,8,Rain,325
2012-10-26,46,36,25,27,25,22,85,65,45,30.51,30.44,30.37,10,10,10,21,10,25,0.00,2,,353
2012-10-27,47,34,20,28,23,18,92,67,42,30.46,30.40,30.30,10,8,0,8,2,14,0.00,1,Fog,349
2012-10-28,52,38,24,28,26,21,85,62,38,30.39,30.32,30.27,10,10,9,9,3,10,0.00,1,,123
2012-10-29,57,49,40,31,27,24,62,49,35,30.32,30.24,30.15,10,10,10,20,8,24,0.00,3,,140
2012-10-30,56,45,33,29,27,23,75,54,32,30.15,30.08,30.02,10,10,10,14,4,18,0.00,3,,88
2012-10-31,61,45,28,33,28,24,85,57,28,30.10,30.05,30.00,10,10,8,10,2,70,0.00,0,,352